Fenwick Island, Delaware
Current Conditions -  °F | °C
As of 2:53 PM on Monday 26 Jan 2015 (Local Time) from KOXB Reporting Station
Moderate Rain Moderate Rain  
Wind Chill: 34°   Ceiling: 3500
Heat Index: 42°   Visibility: 2mi
Dew Point: 40°   Wind: 17mph
Humidity: 92%   Direction: 20°NNE
Pressure: 29.59"   Gusts: 23mph
Location:  38.46°N, 75.05°W
Report Text: KOXB 261953Z AUTO 02015G20KT 2SM RA BR BKN035 OVC045 06/04 A2959 RMK AO2 SLP021 P0024 T00560044 TSNO
Loading
Personal Weather Stations






























Interactive Weather Map New forecast layout! Learn more

10-Day Weather Forecast

Advertisements
Track Severe Weather on mobile